Time,TemperatureF,DewpointF,PressureIn,WindDirection,WindDirectionDegrees,WindSpeedMPH,WindSpeedGustMPH,Humidity,HourlyPrecipIn,Conditions,Clouds,dailyrainin,SoftwareType,DateUTC
2013-09-06 00:04:00,63.3,57.4,30.02,South,183,0.0,3.0,81,0.00,,,0.00,meteohub,2013-09-06 07:04:00,
2013-09-06 00:09:00,63.3,57.4,30.03,South,183,0.0,3.0,81,0.00,,,0.00,meteohub,2013-09-06 07:09:00,
2013-09-06 00:14:00,63.3,57.4,30.03,South,182,1.0,3.0,81,0.00,,,0.00,meteohub,2013-09-06 07:14:00,
2013-09-06 00:19:00,63.3,57.7,30.03,South,183,1.0,3.0,82,0.00,,,0.00,meteohub,2013-09-06 07:19:00,
2013-09-06 00:24:00,63.1,57.6,30.03,South,183,2.0,3.0,82,0.00,,,0.00,meteohub,2013-09-06 07:24:00,
2013-09-06 00:29:00,63.1,57.6,30.03,South,183,2.0,3.0,82,0.00,,,0.00,meteohub,2013-09-06 07:29:00,
2013-09-06 00:34:00,63.1,57.6,30.03,South,183,1.0,3.0,82,0.00,,,0.00,meteohub,2013-09-06 07:34:00,
2013-09-06 00:39:00,63.0,57.4,30.03,South,183,0.0,2.0,82,0.00,,,0.00,meteohub,2013-09-06 07:39:00,
2013-09-06 00:44:00,63.0,57.4,30.03,South,183,0.0,3.0,82,0.00,,,0.00,meteohub,2013-09-06 07:44:00,
2013-09-06 00:49:00,63.0,57.4,30.03,South,183,1.0,3.0,82,0.00,,,0.00,meteohub,2013-09-06 07:49:00,
2013-09-06 00:54:00,63.0,57.4,30.03,South,184,0.0,2.0,82,0.00,,,0.00,meteohub,2013-09-06 07:54:00,
2013-09-06 00:59:00,62.8,57.2,30.03,South,181,0.0,2.0,82,0.00,,,0.00,meteohub,2013-09-06 07:59:00,
2013-09-06 01:04:00,63.0,57.7,30.03,South,182,3.0,3.0,83,0.00,,,0.00,meteohub,2013-09-06 08:04:00,
2013-09-06 01:09:00,62.8,57.9,30.02,South,183,2.0,2.0,84,0.00,,,0.00,meteohub,2013-09-06 08:09:00,
2013-09-06 01:14:00,62.8,58.3,30.02,South,184,4.0,4.0,85,0.00,,,0.00,meteohub,2013-09-06 08:14:00,
2013-09-06 01:19:00,62.6,58.1,30.02,South,182,2.0,5.0,85,0.00,,,0.00,meteohub,2013-09-06 08:19:00,
2013-09-06 01:25:00,62.4,57.9,30.03,South,184,0.0,5.0,85,0.00,,,0.00,meteohub,2013-09-06 08:25:00,
2013-09-06 01:30:00,62.4,57.9,30.02,South,183,2.0,5.0,85,0.00,,,0.00,meteohub,2013-09-06 08:30:00,
2013-09-06 01:35:00,62.2,57.9,30.02,North,359,4.0,4.0,86,0.00,,,0.00,meteohub,2013-09-06 08:35:00,
2013-09-06 01:40:00,62.2,57.9,30.02,South,172,4.0,5.0,86,0.00,,,0.00,meteohub,2013-09-06 08:40:00,
2013-09-06 01:45:00,62.2,57.9,30.02,South,174,1.0,6.0,86,0.00,,,0.00,meteohub,2013-09-06 08:45:00,
2013-09-06 01:50:00,62.2,57.9,30.02,North,359,3.0,6.0,86,0.00,,,0.00,meteohub,2013-09-06 08:50:00,
2013-09-06 01:55:00,62.1,57.7,30.02,South,174,1.0,6.0,86,0.00,,,0.00,meteohub,2013-09-06 08:55:00,
2013-09-06 02:00:00,61.9,57.6,30.02,South,174,0.0,3.0,86,0.00,,,0.00,meteohub,2013-09-06 09:00:00,
2013-09-06 02:05:00,61.5,57.4,30.02,South,171,0.0,3.0,86,0.00,,,0.00,meteohub,2013-09-06 09:05:00,
2013-09-06 02:10:00,61.5,57.6,30.02,South,174,0.0,3.0,87,0.00,,,0.00,meteohub,2013-09-06 09:10:00,
2013-09-06 02:15:00,61.3,57.4,30.02,South,174,0.0,3.0,87,0.00,,,0.00,meteohub,2013-09-06 09:15:00,
2013-09-06 02:20:00,61.3,57.4,30.01,South,173,3.0,3.0,87,0.00,,,0.00,meteohub,2013-09-06 09:20:00,
2013-09-06 02:25:00,61.2,57.6,30.01,SSE,166,1.0,4.0,88,0.00,,,0.00,meteohub,2013-09-06 09:25:00,
2013-09-06 02:30:00,61.2,57.6,30.02,North,359,1.0,4.0,88,0.00,,,0.00,meteohub,2013-09-06 09:30:00,
2013-09-06 02:35:00,61.0,57.4,30.01,North,359,1.0,5.0,88,0.00,,,0.00,meteohub,2013-09-06 09:35:00,
2013-09-06 02:40:00,61.0,57.4,30.01,North,359,1.0,5.0,88,0.00,,,0.00,meteohub,2013-09-06 09:40:00,
2013-09-06 02:45:00,60.8,57.2,30.01,SSE,162,0.0,5.0,88,0.00,,,0.00,meteohub,2013-09-06 09:45:00,
2013-09-06 02:50:00,60.6,57.0,30.01,SSE,162,0.0,3.0,88,0.00,,,0.00,meteohub,2013-09-06 09:50:00,
2013-09-06 02:55:00,60.6,57.0,30.02,SSE,160,0.0,3.0,88,0.00,,,0.00,meteohub,2013-09-06 09:55:00,
2013-09-06 03:00:00,60.6,57.0,30.02,SSE,164,0.0,6.0,88,0.00,,,0.00,meteohub,2013-09-06 10:00:00,
2013-09-06 03:05:00,60.6,57.0,30.01,SSE,162,0.0,6.0,88,0.00,,,0.00,meteohub,2013-09-06 10:05:00,
2013-09-06 03:10:00,60.6,57.0,30.01,SSE,162,3.0,3.0,88,0.00,,,0.00,meteohub,2013-09-06 10:10:00,
2013-09-06 03:15:00,60.8,57.6,30.01,SSE,162,2.0,3.0,89,0.00,,,0.00,meteohub,2013-09-06 10:15:00,
2013-09-06 03:20:00,60.8,57.6,30.01,SSE,165,1.0,3.0,89,0.00,,,0.00,meteohub,2013-09-06 10:20:00,
2013-09-06 03:25:00,60.8,57.6,30.01,SSE,165,0.0,3.0,89,0.00,,,0.00,meteohub,2013-09-06 10:25:00,
2013-09-06 03:30:00,60.8,57.6,30.00,SSE,162,3.0,3.0,89,0.00,,,0.00,meteohub,2013-09-06 10:30:00,
2013-09-06 03:35:00,61.0,57.7,30.01,SSE,158,2.0,6.0,89,0.00,,,0.00,meteohub,2013-09-06 10:35:00,
2013-09-06 03:40:00,60.8,57.6,30.00,SSE,160,1.0,6.0,89,0.00,,,0.00,meteohub,2013-09-06 10:40:00,
2013-09-06 03:45:00,60.8,57.6,30.00,SSE,158,4.0,6.0,89,0.00,,,0.00,meteohub,2013-09-06 10:45:00,
2013-09-06 03:50:00,60.8,57.6,30.00,SSE,160,3.0,5.0,89,0.00,,,0.00,meteohub,2013-09-06 10:50:00,
2013-09-06 03:55:00,60.8,57.6,30.01,SSE,162,0.0,5.0,89,0.00,,,0.00,meteohub,2013-09-06 10:55:00,
2013-09-06 04:00:00,60.8,57.6,30.00,SSE,156,0.0,5.0,89,0.00,,,0.00,meteohub,2013-09-06 11:00:00,
2013-09-06 04:06:00,60.8,57.2,30.00,SSE,160,1.0,5.0,88,0.00,,,0.00,meteohub,2013-09-06 11:06:00,
2013-09-06 04:11:00,60.6,57.0,30.00,SSE,159,1.0,5.0,88,0.00,,,0.00,meteohub,2013-09-06 11:11:00,
2013-09-06 04:16:00,60.6,57.0,30.00,SSE,156,1.0,5.0,88,0.00,,,0.00,meteohub,2013-09-06 11:16:00,
2013-09-06 04:21:00,60.4,56.8,30.00,SSE,157,2.0,5.0,88,0.00,,,0.00,meteohub,2013-09-06 11:21:00,
2013-09-06 04:26:00,60.4,56.8,30.00,SSE,160,2.0,4.0,88,0.00,,,0.00,meteohub,2013-09-06 11:26:00,
2013-09-06 04:31:00,60.3,56.7,30.00,North,359,4.0,4.0,88,0.00,,,0.00,meteohub,2013-09-06 11:31:00,
2013-09-06 04:36:00,60.3,56.7,29.99,SSE,157,0.0,4.0,88,0.00,,,0.00,meteohub,2013-09-06 11:36:00,
2013-09-06 04:41:00,60.3,57.0,29.99,SSE,158,0.0,4.0,89,0.00,,,0.00,meteohub,2013-09-06 11:41:00,
2013-09-06 04:46:00,60.1,56.8,29.99,SSE,159,0.0,4.0,89,0.00,,,0.00,meteohub,2013-09-06 11:46:00,
2013-09-06 04:51:00,60.1,56.8,30.00,SSE,160,2.0,3.0,89,0.00,,,0.00,meteohub,2013-09-06 11:51:00,
2013-09-06 04:56:00,60.1,56.8,30.00,SSE,162,0.0,4.0,89,0.00,,,0.00,meteohub,2013-09-06 11:56:00,
2013-09-06 05:01:00,60.1,56.8,30.00,SSE,158,1.0,4.0,89,0.00,,,0.00,meteohub,2013-09-06 12:01:00,
2013-09-06 05:06:00,59.9,56.7,29.99,SSE,159,1.0,4.0,89,0.00,,,0.00,meteohub,2013-09-06 12:06:00,
2013-09-06 05:11:00,59.9,56.7,30.00,North,359,2.0,4.0,89,0.00,,,0.00,meteohub,2013-09-06 12:11:00,
2013-09-06 05:16:00,59.7,56.5,30.00,SSE,159,0.0,4.0,89,0.00,,,0.00,meteohub,2013-09-06 12:16:00,
2013-09-06 05:21:00,59.7,56.5,30.00,SSE,160,2.0,4.0,89,0.00,,,0.00,meteohub,2013-09-06 12:21:00,
2013-09-06 05:26:00,59.5,56.3,30.00,SSE,159,2.0,4.0,89,0.00,,,0.00,meteohub,2013-09-06 12:26:00,
2013-09-06 05:31:00,59.4,56.1,30.00,North,359,0.0,4.0,89,0.00,,,0.00,meteohub,2013-09-06 12:31:00,
2013-09-06 05:36:00,59.4,56.1,30.00,North,359,0.0,3.0,89,0.00,,,0.00,meteohub,2013-09-06 12:36:00,
2013-09-06 05:42:00,59.2,55.9,30.00,SSE,160,0.0,2.0,89,0.00,,,0.00,meteohub,2013-09-06 12:42:00,
2013-09-06 05:47:00,59.2,55.9,30.00,SSE,159,0.0,2.0,89,0.00,,,0.00,meteohub,2013-09-06 12:47:00,
2013-09-06 05:52:00,59.0,56.1,30.00,North,359,2.0,2.0,90,0.00,,,0.00,meteohub,2013-09-06 12:52:00,
2013-09-06 05:57:00,59.0,56.1,30.00,North,359,1.0,3.0,90,0.00,,,0.00,meteohub,2013-09-06 12:57:00,
2013-09-06 06:02:00,59.0,56.1,30.00,SSE,160,1.0,3.0,90,0.00,,,0.00,meteohub,2013-09-06 13:02:00,
2013-09-06 06:07:00,59.0,56.1,30.00,North,359,0.0,3.0,90,0.00,,,0.00,meteohub,2013-09-06 13:07:00,
2013-09-06 06:12:00,59.0,56.1,30.00,SSE,162,0.0,3.0,90,0.00,,,0.00,meteohub,2013-09-06 13:12:00,
2013-09-06 06:17:00,59.0,56.1,30.00,SSE,160,1.0,3.0,90,0.00,,,0.00,meteohub,2013-09-06 13:17:00,
2013-09-06 06:22:00,59.0,56.1,30.00,SSE,157,0.0,3.0,90,0.00,,,0.00,meteohub,2013-09-06 13:22:00,
2013-09-06 06:27:00,59.0,56.1,30.00,SSE,160,2.0,2.0,90,0.00,,,0.00,meteohub,2013-09-06 13:27:00,
2013-09-06 06:32:00,59.0,56.1,30.00,SSE,160,0.0,3.0,90,0.00,,,0.00,meteohub,2013-09-06 13:32:00,
2013-09-06 06:37:00,59.0,55.8,30.00,SSE,160,0.0,3.0,89,0.00,,,0.00,meteohub,2013-09-06 13:37:00,
2013-09-06 06:42:00,59.2,55.9,30.00,SSE,159,1.0,3.0,89,0.00,,,0.00,meteohub,2013-09-06 13:42:00,
2013-09-06 06:47:00,59.2,55.9,30.00,SSE,160,0.0,2.0,89,0.00,,,0.00,meteohub,2013-09-06 13:47:00,
2013-09-06 06:52:00,59.0,55.8,30.00,SSE,159,0.0,2.0,89,0.00,,,0.00,meteohub,2013-09-06 13:52:00,
2013-09-06 06:57:00,59.2,55.9,30.01,SSE,159,0.0,2.0,89,0.00,,,0.00,meteohub,2013-09-06 13:57:00,
2013-09-06 07:02:00,58.8,55.2,30.01,SSE,160,0.0,0.0,88,0.00,,,0.00,meteohub,2013-09-06 14:02:00,
2013-09-06 07:07:00,58.8,55.6,30.01,SSE,158,0.0,0.0,89,0.00,,,0.00,meteohub,2013-09-06 14:07:00,
2013-09-06 07:13:00,58.6,55.0,30.01,SSE,156,0.0,0.0,88,0.00,,,0.00,meteohub,2013-09-06 14:13:00,
2013-09-06 07:18:00,58.6,55.0,30.01,SSE,157,0.0,0.0,88,0.00,,,0.00,meteohub,2013-09-06 14:18:00,
2013-09-06 07:23:00,58.8,55.2,30.01,SSE,157,0.0,0.0,88,0.00,,,0.00,meteohub,2013-09-06 14:23:00,
2013-09-06 07:28:00,59.0,55.4,30.01,SSE,158,0.0,0.0,88,0.00,,,0.00,meteohub,2013-09-06 14:28:00,
2013-09-06 07:33:00,59.4,55.4,30.01,SSE,159,0.0,0.0,87,0.00,,,0.00,meteohub,2013-09-06 14:33:00,
2013-09-06 07:38:00,59.5,55.6,30.01,SSE,159,0.0,0.0,87,0.00,,,0.00,meteohub,2013-09-06 14:38:00,
2013-09-06 07:43:00,59.9,55.4,30.02,SSE,160,0.0,0.0,85,0.00,,,0.00,meteohub,2013-09-06 14:43:00,
2013-09-06 07:48:00,60.3,55.8,30.02,SSE,159,0.0,0.0,85,0.00,,,0.00,meteohub,2013-09-06 14:48:00,
2013-09-06 07:53:00,60.6,55.8,30.02,SSE,158,0.0,0.0,84,0.00,,,0.00,meteohub,2013-09-06 14:53:00,
2013-09-06 07:58:00,61.0,56.1,30.02,SSE,160,0.0,0.0,84,0.00,,,0.00,meteohub,2013-09-06 14:58:00,
2013-09-06 08:03:00,61.7,56.5,30.02,SSE,160,0.0,0.0,83,0.00,,,0.00,meteohub,2013-09-06 15:03:00,
2013-09-06 08:08:00,62.2,56.7,30.02,SSE,160,0.0,0.0,82,0.00,,,0.00,meteohub,2013-09-06 15:08:00,
2013-09-06 08:13:00,63.0,57.0,30.01,SSE,158,0.0,1.0,81,0.00,,,0.00,meteohub,2013-09-06 15:13:00,
2013-09-06 08:18:00,63.3,57.4,30.01,SSE,160,0.0,1.0,81,0.00,,,0.00,meteohub,2013-09-06 15:18:00,
2013-09-06 08:23:00,63.9,57.6,30.01,SSE,159,0.0,1.0,80,0.00,,,0.00,meteohub,2013-09-06 15:23:00,
2013-09-06 08:28:00,64.4,58.1,30.02,SSE,159,0.0,0.0,80,0.00,,,0.00,meteohub,2013-09-06 15:28:00,
2013-09-06 08:33:00,64.8,57.7,30.02,SSE,158,0.0,0.0,78,0.00,,,0.00,meteohub,2013-09-06 15:33:00,
2013-09-06 08:39:00,64.9,57.6,30.01,SSE,158,0.0,0.0,77,0.00,,,0.00,meteohub,2013-09-06 15:39:00,
2013-09-06 08:44:00,64.9,57.2,30.01,SSE,160,0.0,0.0,76,0.00,,,0.00,meteohub,2013-09-06 15:44:00,
2013-09-06 08:49:00,64.9,56.8,30.02,South,183,1.0,3.0,75,0.00,,,0.00,meteohub,2013-09-06 15:49:00,
2013-09-06 08:54:00,65.1,56.7,30.02,West,280,2.0,3.0,74,0.00,,,0.00,meteohub,2013-09-06 15:54:00,
2013-09-06 08:59:00,65.3,56.8,30.02,NW,314,3.0,4.0,74,0.00,,,0.00,meteohub,2013-09-06 15:59:00,
2013-09-06 09:04:00,65.7,56.3,30.01,NNW,339,1.0,5.0,72,0.00,,,0.00,meteohub,2013-09-06 16:04:00,
2013-09-06 09:09:00,65.7,56.8,30.01,NNW,338,3.0,6.0,73,0.00,,,0.00,meteohub,2013-09-06 16:09:00,
2013-09-06 09:14:00,65.8,57.0,30.01,NNW,340,0.0,6.0,73,0.00,,,0.00,meteohub,2013-09-06 16:14:00,
2013-09-06 09:19:00,66.6,56.8,30.01,North,354,2.0,6.0,71,0.00,,,0.00,meteohub,2013-09-06 16:19:00,
2013-09-06 09:24:00,66.9,57.2,30.01,North,349,2.0,5.0,71,0.00,,,0.00,meteohub,2013-09-06 16:24:00,
2013-09-06 09:29:00,67.3,57.2,30.01,NNW,346,2.0,5.0,70,0.00,,,0.00,meteohub,2013-09-06 16:29:00,
2013-09-06 09:34:00,67.6,57.0,30.01,NNW,341,2.0,5.0,69,0.00,,,0.00,meteohub,2013-09-06 16:34:00,
2013-09-06 09:39:00,68.2,57.2,30.01,WNW,303,0.0,6.0,68,0.00,,,0.00,meteohub,2013-09-06 16:39:00,
2013-09-06 09:44:00,68.5,57.2,30.01,WNW,298,3.0,6.0,67,0.00,,,0.00,meteohub,2013-09-06 16:44:00,
2013-09-06 09:49:00,68.9,57.6,30.01,NW,325,2.0,6.0,67,0.00,,,0.00,meteohub,2013-09-06 16:49:00,
2013-09-06 09:54:00,69.3,57.9,30.01,NW,312,6.0,6.0,67,0.00,,,0.00,meteohub,2013-09-06 16:54:00,
2013-09-06 09:59:00,69.3,58.3,30.01,WNW,301,8.0,8.0,68,0.00,,,0.00,meteohub,2013-09-06 16:59:00,
2013-09-06 10:04:00,69.3,58.3,30.01,NW,306,4.0,8.0,68,0.00,,,0.00,meteohub,2013-09-06 17:04:00,
2013-09-06 10:10:00,69.4,58.8,30.01,NW,310,4.0,10.0,69,0.00,,,0.00,meteohub,2013-09-06 17:10:00,
2013-09-06 10:15:00,69.8,58.8,30.01,NW,310,3.0,10.0,68,0.00,,,0.00,meteohub,2013-09-06 17:15:00,
2013-09-06 10:20:00,70.3,58.8,30.01,NW,317,2.0,6.0,67,0.00,,,0.00,meteohub,2013-09-06 17:20:00,
2013-09-06 10:25:00,70.5,59.0,30.01,NW,317,0.0,6.0,67,0.00,,,0.00,meteohub,2013-09-06 17:25:00,
2013-09-06 10:30:00,70.9,59.0,30.01,NW,316,2.0,5.0,66,0.00,,,0.00,meteohub,2013-09-06 17:30:00,
2013-09-06 10:35:00,71.2,58.8,30.00,NW,316,0.0,5.0,65,0.00,,,0.00,meteohub,2013-09-06 17:35:00,
2013-09-06 10:40:00,72.1,59.4,30.01,NNW,335,1.0,4.0,64,0.00,,,0.00,meteohub,2013-09-06 17:40:00,
2013-09-06 10:45:00,72.7,61.9,30.00,SSE,154,2.0,4.0,69,0.00,,,0.00,meteohub,2013-09-06 17:45:00,
2013-09-06 10:50:00,72.5,61.7,30.00,SE,127,0.0,8.0,69,0.00,,,0.00,meteohub,2013-09-06 17:50:00,
2013-09-06 10:55:00,72.0,61.2,30.00,SE,132,4.0,8.0,69,0.00,,,0.00,meteohub,2013-09-06 17:55:00,
2013-09-06 11:00:00,71.4,61.2,30.00,SE,129,3.0,8.0,70,0.00,,,0.00,meteohub,2013-09-06 18:00:00,
2013-09-06 11:05:00,71.4,61.5,29.99,SE,128,2.0,7.0,71,0.00,,,0.00,meteohub,2013-09-06 18:05:00,
2013-09-06 11:10:00,72.0,61.7,29.99,SE,133,2.0,6.0,70,0.00,,,0.00,meteohub,2013-09-06 18:10:00,
2013-09-06 11:15:00,72.3,61.2,29.99,SSE,164,1.0,6.0,68,0.00,,,0.00,meteohub,2013-09-06 18:15:00,
2013-09-06 11:20:00,72.9,61.3,29.99,South,173,3.0,5.0,67,0.00,,,0.00,meteohub,2013-09-06 18:20:00,
2013-09-06 11:25:00,73.2,61.5,29.99,South,181,2.0,5.0,67,0.00,,,0.00,meteohub,2013-09-06 18:25:00,
2013-09-06 11:30:00,74.1,62.1,29.99,South,181,0.0,6.0,66,0.00,,,0.00,meteohub,2013-09-06 18:30:00,
2013-09-06 11:35:00,75.4,61.5,29.99,South,181,0.0,6.0,62,0.00,,,0.00,meteohub,2013-09-06 18:35:00,
2013-09-06 11:41:00,76.3,57.9,29.99,ENE,60,2.0,6.0,53,0.00,,,0.00,meteohub,2013-09-06 18:41:00,
2013-09-06 11:46:00,76.6,56.7,29.99,WNW,284,7.0,7.0,50,0.00,,,0.00,meteohub,2013-09-06 18:46:00,
2013-09-06 11:51:00,76.5,55.9,29.99,WNW,291,1.0,9.0,49,0.00,,,0.00,meteohub,2013-09-06 18:51:00,
2013-09-06 11:56:00,76.6,56.1,29.99,WNW,286,4.0,9.0,49,0.00,,,0.00,meteohub,2013-09-06 18:56:00,
2013-09-06 12:01:00,77.4,55.6,29.98,NW,314,5.0,9.0,47,0.00,,,0.00,meteohub,2013-09-06 19:01:00,
2013-09-06 12:06:00,77.4,55.6,29.98,WNW,287,6.0,11.0,47,0.00,,,0.00,meteohub,2013-09-06 19:06:00,
2013-09-06 12:11:00,77.5,55.8,29.98,NNW,330,1.0,11.0,47,0.00,,,0.00,meteohub,2013-09-06 19:11:00,
2013-09-06 12:16:00,78.3,56.3,29.98,NW,318,3.0,11.0,47,0.00,,,0.00,meteohub,2013-09-06 19:16:00,
2013-09-06 12:21:00,78.8,60.8,29.97,SSW,212,2.0,9.0,54,0.00,,,0.00,meteohub,2013-09-06 19:21:00,
2013-09-06 12:26:00,78.6,62.1,29.97,South,172,5.0,6.0,57,0.00,,,0.00,meteohub,2013-09-06 19:26:00,
2013-09-06 12:31:00,77.7,61.3,29.97,SSE,159,2.0,7.0,57,0.00,,,0.00,meteohub,2013-09-06 19:31:00,
2013-09-06 12:36:00,77.2,60.3,29.97,SE,146,1.0,7.0,56,0.00,,,0.00,meteohub,2013-09-06 19:36:00,
2013-09-06 12:41:00,77.4,61.0,29.96,South,173,2.0,7.0,57,0.00,,,0.00,meteohub,2013-09-06 19:41:00,
2013-09-06 12:46:00,78.1,60.6,29.96,SSW,198,5.0,7.0,55,0.00,,,0.00,meteohub,2013-09-06 19:46:00,
2013-09-06 12:51:00,78.1,59.5,29.96,SSW,200,3.0,7.0,53,0.00,,,0.00,meteohub,2013-09-06 19:51:00,
2013-09-06 12:56:00,78.1,59.5,29.96,SSW,193,5.0,7.0,53,0.00,,,0.00,meteohub,2013-09-06 19:56:00,
2013-09-06 13:01:00,78.6,57.9,29.96,SSW,193,1.0,7.0,49,0.00,,,0.00,meteohub,2013-09-06 20:01:00,
2013-09-06 13:06:00,79.9,59.0,29.95,SSE,157,4.0,6.0,49,0.00,,,0.00,meteohub,2013-09-06 20:06:00,
2013-09-06 13:11:00,81.3,59.7,29.95,SW,216,4.0,10.0,48,0.00,,,0.00,meteohub,2013-09-06 20:11:00,
2013-09-06 13:16:00,81.5,58.6,29.95,ENE,68,1.0,10.0,46,0.00,,,0.00,meteohub,2013-09-06 20:16:00,
2013-09-06 13:21:00,81.9,55.9,29.94,WNW,293,4.0,10.0,41,0.00,,,0.00,meteohub,2013-09-06 20:21:00,
2013-09-06 13:26:00,82.4,55.6,29.94,North,354,3.0,8.0,40,0.00,,,0.00,meteohub,2013-09-06 20:26:00,
2013-09-06 13:31:00,82.9,55.4,29.94,WNW,287,5.0,8.0,39,0.00,,,0.00,meteohub,2013-09-06 20:31:00,
2013-09-06 13:36:00,83.3,55.8,29.94,WNW,291,4.0,9.0,39,0.00,,,0.00,meteohub,2013-09-06 20:36:00,
2013-09-06 13:41:00,83.7,55.4,29.94,WNW,299,5.0,9.0,38,0.00,,,0.00,meteohub,2013-09-06 20:41:00,
2013-09-06 13:46:00,83.7,55.4,29.94,NNW,340,5.0,12.0,38,0.00,,,0.00,meteohub,2013-09-06 20:46:00,
2013-09-06 13:51:00,83.7,55.4,29.94,WNW,298,11.0,13.0,38,0.00,,,0.00,meteohub,2013-09-06 20:51:00,
2013-09-06 13:56:00,83.3,55.0,29.94,NNW,332,4.0,13.0,38,0.00,,,0.00,meteohub,2013-09-06 20:56:00,
2013-09-06 14:02:00,83.8,54.9,29.93,WNW,303,4.0,13.0,37,0.00,,,0.00,meteohub,2013-09-06 21:02:00,
2013-09-06 14:07:00,84.4,55.2,29.93,NNW,338,2.0,11.0,37,0.00,,,0.00,meteohub,2013-09-06 21:07:00,
2013-09-06 14:12:00,84.6,54.7,29.93,WNW,292,2.0,10.0,36,0.00,,,0.00,meteohub,2013-09-06 21:12:00,
2013-09-06 14:17:00,85.3,54.5,29.92,North,10,5.0,10.0,35,0.00,,,0.00,meteohub,2013-09-06 21:17:00,
2013-09-06 14:22:00,84.2,59.9,29.92,SE,125,5.0,10.0,44,0.00,,,0.00,meteohub,2013-09-06 21:22:00,
2013-09-06 14:27:00,83.8,58.3,29.92,East,89,1.0,9.0,42,0.00,,,0.00,meteohub,2013-09-06 21:27:00,
2013-09-06 14:32:00,84.4,60.1,29.92,East,88,2.0,9.0,44,0.00,,,0.00,meteohub,2013-09-06 21:32:00,
2013-09-06 14:37:00,82.9,60.1,29.91,SSE,162,4.0,7.0,46,0.00,,,0.00,meteohub,2013-09-06 21:37:00,
2013-09-06 14:42:00,82.4,60.1,29.91,SSE,164,4.0,7.0,47,0.00,,,0.00,meteohub,2013-09-06 21:42:00,
2013-09-06 14:47:00,81.7,60.1,29.91,SSE,164,8.0,8.0,48,0.00,,,0.00,meteohub,2013-09-06 21:47:00,
2013-09-06 14:52:00,81.0,60.1,29.91,SSE,167,5.0,10.0,49,0.00,,,0.00,meteohub,2013-09-06 21:52:00,
2013-09-06 14:57:00,81.7,58.8,29.90,SE,129,6.0,10.0,46,0.00,,,0.00,meteohub,2013-09-06 21:57:00,
2013-09-06 15:02:00,82.2,58.8,29.90,SSE,156,2.0,10.0,45,0.00,,,0.00,meteohub,2013-09-06 22:02:00,
2013-09-06 15:07:00,82.6,59.7,29.90,SSE,156,3.0,10.0,46,0.00,,,0.00,meteohub,2013-09-06 22:07:00,
2013-09-06 15:12:00,82.9,60.1,29.90,SSE,157,4.0,8.0,46,0.00,,,0.00,meteohub,2013-09-06 22:12:00,
2013-09-06 15:17:00,83.5,59.4,29.90,SE,141,5.0,6.0,44,0.00,,,0.00,meteohub,2013-09-06 22:17:00,
2013-09-06 15:22:00,83.5,58.6,29.90,SSE,156,3.0,8.0,43,0.00,,,0.00,meteohub,2013-09-06 22:22:00,
2013-09-06 15:27:00,83.8,57.6,29.89,SSE,158,2.0,8.0,41,0.00,,,0.00,meteohub,2013-09-06 22:27:00,
2013-09-06 15:32:00,84.6,59.5,29.89,SSE,151,1.0,6.0,43,0.00,,,0.00,meteohub,2013-09-06 22:32:00,
2013-09-06 15:37:00,84.7,56.3,29.89,SSE,147,3.0,6.0,38,0.00,,,0.00,meteohub,2013-09-06 22:37:00,
2013-09-06 15:42:00,84.9,59.9,29.89,SSE,162,2.0,6.0,43,0.00,,,0.00,meteohub,2013-09-06 22:42:00,
2013-09-06 15:47:00,85.1,60.8,29.89,SE,127,8.0,8.0,44,0.00,,,0.00,meteohub,2013-09-06 22:47:00,
2013-09-06 15:52:00,83.7,61.3,29.88,SE,142,6.0,9.0,47,0.00,,,0.00,meteohub,2013-09-06 22:52:00,
2013-09-06 15:57:00,82.9,61.2,29.88,SE,133,4.0,9.0,48,0.00,,,0.00,meteohub,2013-09-06 22:57:00,
2013-09-06 16:02:00,82.6,60.3,29.88,SE,137,3.0,9.0,47,0.00,,,0.00,meteohub,2013-09-06 23:02:00,
2013-09-06 16:07:00,82.6,60.3,29.88,SSE,147,4.0,9.0,47,0.00,,,0.00,meteohub,2013-09-06 23:07:00,
2013-09-06 16:12:00,82.8,61.0,29.88,SE,133,3.0,7.0,48,0.00,,,0.00,meteohub,2013-09-06 23:12:00,
2013-09-06 16:17:00,82.6,61.5,29.88,SSE,158,2.0,6.0,49,0.00,,,0.00,meteohub,2013-09-06 23:17:00,
2013-09-06 16:22:00,82.6,60.3,29.88,SE,135,5.0,7.0,47,0.00,,,0.00,meteohub,2013-09-06 23:22:00,
2013-09-06 16:27:00,82.2,61.2,29.87,SSE,160,3.0,7.0,49,0.00,,,0.00,meteohub,2013-09-06 23:27:00,
2013-09-06 16:32:00,82.9,60.6,29.87,SSE,158,2.0,6.0,47,0.00,,,0.00,meteohub,2013-09-06 23:32:00,
2013-09-06 16:37:00,82.9,60.6,29.87,SSE,147,4.0,6.0,47,0.00,,,0.00,meteohub,2013-09-06 23:37:00,
2013-09-06 16:42:00,82.2,61.2,29.87,SSE,150,2.0,8.0,49,0.00,,,0.00,meteohub,2013-09-06 23:42:00,
2013-09-06 16:47:00,81.9,61.3,29.87,SSE,157,5.0,8.0,50,0.00,,,0.00,meteohub,2013-09-06 23:47:00,
2013-09-06 16:52:00,81.3,60.3,29.87,SSE,151,3.0,8.0,49,0.00,,,0.00,meteohub,2013-09-06 23:52:00,
2013-09-06 16:57:00,81.0,60.6,29.87,SE,146,5.0,8.0,50,0.00,,,0.00,meteohub,2013-09-06 23:57:00,
2013-09-06 17:03:00,80.2,58.8,29.87,SE,133,3.0,8.0,48,0.00,,,0.00,meteohub,2013-09-07 00:03:00,
2013-09-06 17:08:00,79.9,58.5,29.87,SE,137,3.0,7.0,48,0.00,,,0.00,meteohub,2013-09-07 00:08:00,
2013-09-06 17:13:00,79.7,57.0,29.87,SE,131,6.0,7.0,46,0.00,,,0.00,meteohub,2013-09-07 00:13:00,
2013-09-06 17:18:00,79.5,57.6,29.86,SSE,154,5.0,7.0,47,0.00,,,0.00,meteohub,2013-09-07 00:18:00,
2013-09-06 17:23:00,79.3,57.4,29.86,SSE,147,5.0,7.0,47,0.00,,,0.00,meteohub,2013-09-07 00:23:00,
2013-09-06 17:28:00,79.3,59.0,29.86,SSE,160,5.0,7.0,50,0.00,,,0.00,meteohub,2013-09-07 00:28:00,
2013-09-06 17:33:00,79.0,58.8,29.86,SSE,147,3.0,7.0,50,0.00,,,0.00,meteohub,2013-09-07 00:33:00,
2013-09-06 17:38:00,78.4,59.4,29.86,SE,125,6.0,7.0,52,0.00,,,0.00,meteohub,2013-09-07 00:38:00,
2013-09-06 17:43:00,77.5,58.5,29.86,SE,135,6.0,8.0,52,0.00,,,0.00,meteohub,2013-09-07 00:43:00,
2013-09-06 17:48:00,77.2,59.7,29.86,SE,145,3.0,8.0,55,0.00,,,0.00,meteohub,2013-09-07 00:48:00,
2013-09-06 17:53:00,76.8,59.9,29.86,SSE,147,3.0,8.0,56,0.00,,,0.00,meteohub,2013-09-07 00:53:00,
2013-09-06 17:58:00,76.5,58.6,29.86,SE,135,4.0,7.0,54,0.00,,,0.00,meteohub,2013-09-07 00:58:00,
2013-09-06 18:03:00,76.5,58.6,29.86,SSE,149,4.0,7.0,54,0.00,,,0.00,meteohub,2013-09-07 01:03:00,
2013-09-06 18:08:00,76.8,58.5,29.86,SSE,149,5.0,7.0,53,0.00,,,0.00,meteohub,2013-09-07 01:08:00,
2013-09-06 18:13:00,76.8,58.5,29.86,SSE,157,2.0,6.0,53,0.00,,,0.00,meteohub,2013-09-07 01:13:00,
2013-09-06 18:18:00,76.6,58.3,29.86,SSE,147,2.0,6.0,53,0.00,,,0.00,meteohub,2013-09-07 01:18:00,
2013-09-06 18:23:00,76.6,58.3,29.86,SE,141,6.0,6.0,53,0.00,,,0.00,meteohub,2013-09-07 01:23:00,
2013-09-06 18:28:00,75.9,59.5,29.86,SE,145,1.0,6.0,57,0.00,,,0.00,meteohub,2013-09-07 01:28:00,
2013-09-06 18:33:00,75.9,59.5,29.86,SE,146,2.0,8.0,57,0.00,,,0.00,meteohub,2013-09-07 01:33:00,
2013-09-06 18:38:00,75.9,59.5,29.86,SE,131,4.0,8.0,57,0.00,,,0.00,meteohub,2013-09-07 01:38:00,
2013-09-06 18:43:00,75.7,59.4,29.86,SE,131,5.0,8.0,57,0.00,,,0.00,meteohub,2013-09-07 01:43:00,
2013-09-06 18:48:00,75.7,59.9,29.86,SE,131,0.0,7.0,58,0.00,,,0.00,meteohub,2013-09-07 01:48:00,
2013-09-06 18:53:00,75.7,60.4,29.86,SE,131,2.0,7.0,59,0.00,,,0.00,meteohub,2013-09-07 01:53:00,
2013-09-06 18:58:00,75.2,60.4,29.86,SE,132,0.0,7.0,60,0.00,,,0.00,meteohub,2013-09-07 01:58:00,
2013-09-06 19:03:00,74.8,61.0,29.86,SE,133,2.0,4.0,62,0.00,,,0.00,meteohub,2013-09-07 02:03:00,
2013-09-06 19:08:00,74.5,60.6,29.86,SE,136,3.0,4.0,62,0.00,,,0.00,meteohub,2013-09-07 02:08:00,
2013-09-06 19:13:00,73.9,60.1,29.86,SE,137,3.0,5.0,62,0.00,,,0.00,meteohub,2013-09-07 02:13:00,
2013-09-06 19:19:00,73.8,60.4,29.86,SE,139,3.0,5.0,63,0.00,,,0.00,meteohub,2013-09-07 02:19:00,
2013-09-06 19:24:00,73.6,60.3,29.86,SE,139,2.0,5.0,63,0.00,,,0.00,meteohub,2013-09-07 02:24:00,
2013-09-06 19:29:00,73.4,60.1,29.86,SE,140,3.0,5.0,63,0.00,,,0.00,meteohub,2013-09-07 02:29:00,
2013-09-06 19:34:00,73.0,60.6,29.86,SE,139,2.0,5.0,65,0.00,,,0.00,meteohub,2013-09-07 02:34:00,
2013-09-06 19:39:00,72.7,60.3,29.86,SE,140,1.0,5.0,65,0.00,,,0.00,meteohub,2013-09-07 02:39:00,
2013-09-06 19:44:00,72.3,60.8,29.86,SE,140,0.0,5.0,67,0.00,,,0.00,meteohub,2013-09-07 02:44:00,
2013-09-06 19:49:00,72.1,61.3,29.86,SE,139,0.0,4.0,69,0.00,,,0.00,meteohub,2013-09-07 02:49:00,
2013-09-06 19:54:00,71.8,61.0,29.86,SE,139,0.0,3.0,69,0.00,,,0.00,meteohub,2013-09-07 02:54:00,
2013-09-06 19:59:00,71.4,61.2,29.87,SE,140,0.0,3.0,70,0.00,,,0.00,meteohub,2013-09-07 02:59:00,
2013-09-06 20:04:00,71.2,61.3,29.86,SE,139,0.0,3.0,71,0.00,,,0.00,meteohub,2013-09-07 03:04:00,
2013-09-06 20:09:00,71.2,61.3,29.87,SE,139,0.0,3.0,71,0.00,,,0.00,meteohub,2013-09-07 03:09:00,
2013-09-06 20:14:00,71.1,61.2,29.87,SE,140,0.0,2.0,71,0.00,,,0.00,meteohub,2013-09-07 03:14:00,
2013-09-06 20:19:00,71.2,61.3,29.87,SE,140,0.0,1.0,71,0.00,,,0.00,meteohub,2013-09-07 03:19:00,
2013-09-06 20:24:00,71.2,61.0,29.87,SE,139,0.0,1.0,70,0.00,,,0.00,meteohub,2013-09-07 03:24:00,
2013-09-06 20:29:00,71.4,61.2,29.87,SE,140,0.0,1.0,70,0.00,,,0.00,meteohub,2013-09-07 03:29:00,
2013-09-06 20:34:00,71.6,60.1,29.87,SE,139,0.0,1.0,67,0.00,,,0.00,meteohub,2013-09-07 03:34:00,
2013-09-06 20:39:00,72.0,57.4,29.88,SE,139,1.0,1.0,60,0.00,,,0.00,meteohub,2013-09-07 03:39:00,
2013-09-06 20:44:00,72.9,58.1,29.88,SE,139,0.0,2.0,60,0.00,,,0.00,meteohub,2013-09-07 03:44:00,
2013-09-06 20:49:00,73.2,60.8,29.88,SSE,161,4.0,4.0,65,0.00,,,0.00,meteohub,2013-09-07 03:49:00,
2013-09-06 20:54:00,72.3,60.3,29.88,South,187,3.0,4.0,66,0.00,,,0.00,meteohub,2013-09-07 03:54:00,
2013-09-06 20:59:00,72.1,60.1,29.88,South,187,0.0,5.0,66,0.00,,,0.00,meteohub,2013-09-07 03:59:00,
2013-09-06 21:01:00,72.0,59.9,29.88,South,188,0.0,5.0,66,0.00,,,0.00,meteohub,2013-09-07 04:01:00,
2013-09-06 21:02:00,72.0,59.9,29.88,South,187,0.0,5.0,66,0.00,,,0.00,meteohub,2013-09-07 04:02:00,
2013-09-06 21:05:00,72.0,59.9,29.88,South,187,0.0,5.0,66,0.00,,,0.00,meteohub,2013-09-07 04:05:00,
2013-09-06 21:10:00,72.1,59.7,29.88,South,187,0.0,5.0,65,0.00,,,0.00,meteohub,2013-09-07 04:10:00,
2013-09-06 21:15:00,72.1,59.4,29.88,South,187,0.0,4.0,64,0.00,,,0.00,meteohub,2013-09-07 04:15:00,
2013-09-06 21:20:00,72.1,59.7,29.88,South,188,0.0,2.0,65,0.00,,,0.00,meteohub,2013-09-07 04:20:00,
2013-09-06 21:25:00,72.1,58.5,29.88,South,187,0.0,0.0,62,0.00,,,0.00,meteohub,2013-09-07 04:25:00,
2013-09-06 21:30:00,72.5,56.8,29.88,South,187,0.0,0.0,58,0.00,,,0.00,meteohub,2013-09-07 04:30:00,
2013-09-06 21:35:00,72.9,55.2,29.88,South,187,0.0,2.0,54,0.00,,,0.00,meteohub,2013-09-07 04:35:00,
2013-09-06 21:40:00,73.0,59.2,29.88,South,188,1.0,2.0,62,0.00,,,0.00,meteohub,2013-09-07 04:40:00,
2013-09-06 21:45:00,72.9,59.5,29.88,South,187,1.0,2.0,63,0.00,,,0.00,meteohub,2013-09-07 04:45:00,
2013-09-06 21:50:00,72.9,57.7,29.88,South,187,0.0,2.0,59,0.00,,,0.00,meteohub,2013-09-07 04:50:00,
2013-09-06 21:55:00,73.0,56.8,29.88,South,187,0.0,2.0,57,0.00,,,0.00,meteohub,2013-09-07 04:55:00,
2013-09-06 22:00:00,73.2,56.7,29.88,South,187,0.0,2.0,56,0.00,,,0.00,meteohub,2013-09-07 05:00:00,
2013-09-06 22:05:00,73.2,56.1,29.88,South,187,0.0,1.0,55,0.00,,,0.00,meteohub,2013-09-07 05:05:00,
2013-09-06 22:10:00,73.2,54.0,29.88,South,187,0.0,0.0,51,0.00,,,0.00,meteohub,2013-09-07 05:10:00,
2013-09-06 22:15:00,73.6,52.7,29.88,South,187,0.0,0.0,48,0.00,,,0.00,meteohub,2013-09-07 05:15:00,
2013-09-06 22:20:00,73.8,51.1,29.88,South,187,0.0,0.0,45,0.00,,,0.00,meteohub,2013-09-07 05:20:00,
2013-09-06 22:25:00,73.9,53.1,29.88,South,187,0.0,0.0,48,0.00,,,0.00,meteohub,2013-09-07 05:25:00,
2013-09-06 22:30:00,73.8,54.5,29.88,South,188,0.0,0.0,51,0.00,,,0.00,meteohub,2013-09-07 05:30:00,
2013-09-06 22:35:00,73.2,55.0,29.88,South,187,0.0,0.0,53,0.00,,,0.00,meteohub,2013-09-07 05:35:00,
2013-09-06 22:40:00,72.9,55.2,29.88,South,187,0.0,0.0,54,0.00,,,0.00,meteohub,2013-09-07 05:40:00,
2013-09-06 22:45:00,72.3,57.7,29.88,South,188,0.0,0.0,60,0.00,,,0.00,meteohub,2013-09-07 05:45:00,
2013-09-06 22:50:00,71.8,58.5,29.88,South,187,0.0,1.0,63,0.00,,,0.00,meteohub,2013-09-07 05:50:00,
2013-09-06 22:55:00,71.1,60.8,29.88,South,187,0.0,2.0,70,0.00,,,0.00,meteohub,2013-09-07 05:55:00,
2013-09-06 23:00:00,70.3,60.8,29.88,South,187,0.0,2.0,72,0.00,,,0.00,meteohub,2013-09-07 06:00:00,
2013-09-06 23:05:00,70.0,61.0,29.88,South,187,0.0,2.0,73,0.00,,,0.00,meteohub,2013-09-07 06:05:00,
2013-09-06 23:10:00,69.6,61.0,29.88,South,187,0.0,2.0,74,0.00,,,0.00,meteohub,2013-09-07 06:10:00,
2013-09-06 23:15:00,69.3,61.0,29.88,South,187,0.0,0.0,75,0.00,,,0.00,meteohub,2013-09-07 06:15:00,
2013-09-06 23:20:00,69.1,61.2,29.88,South,187,0.0,0.0,76,0.00,,,0.00,meteohub,2013-09-07 06:20:00,
2013-09-06 23:25:00,68.7,61.2,29.87,South,188,1.0,1.0,77,0.00,,,0.00,meteohub,2013-09-07 06:25:00,
2013-09-06 23:30:00,68.5,61.3,29.87,South,187,0.0,1.0,78,0.00,,,0.00,meteohub,2013-09-07 06:30:00,
2013-09-06 23:35:00,68.4,61.2,29.87,South,187,0.0,1.0,78,0.00,,,0.00,meteohub,2013-09-07 06:35:00,
2013-09-06 23:40:00,68.2,61.3,29.87,South,187,1.0,2.0,79,0.00,,,0.00,meteohub,2013-09-07 06:40:00,
2013-09-06 23:45:00,67.8,61.3,29.87,South,187,0.0,2.0,80,0.00,,,0.00,meteohub,2013-09-07 06:45:00,
2013-09-06 23:51:00,67.8,61.3,29.87,South,187,1.0,2.0,80,0.00,,,0.00,meteohub,2013-09-07 06:51:00,
2013-09-06 23:56:00,67.6,61.5,29.87,South,187,0.0,3.0,81,0.00,,,0.00,meteohub,2013-09-07 06:56:00,